sensor_id;sensor_type;location;lat;lon;timestamp;pressure;altitude;pressure_sealevel;temperature;humidity
14818;BME280;7500;57.698;11.986;2022-09-12T00:01:36;101876.91;;;15.80;100.00
14818;BME280;7500;57.698;11.986;2022-09-12T00:04:03;101881.34;;;15.79;100.00
14818;BME280;7500;57.698;11.986;2022-09-12T00:06:32;101875.69;;;15.70;100.00
14818;BME280;7500;57.698;11.986;2022-09-12T00:09:01;101876.44;;;15.72;100.00
14818;BME280;7500;57.698;11.986;2022-09-12T00:11:29;101881.69;;;15.73;100.00
14818;BME280;7500;57.698;11.986;2022-09-12T00:13:58;101871.97;;;15.72;100.00
14818;BME280;7500;57.698;11.986;2022-09-12T00:16:27;101878.75;;;15.62;100.00
14818;BME280;7500;57.698;11.986;2022-09-12T00:18:55;101870.19;;;15.73;100.00
14818;BME280;7500;57.698;11.986;2022-09-12T00:21:22;101860.16;;;15.78;100.00
14818;BME280;7500;57.698;11.986;2022-09-12T00:23:49;101863.38;;;15.67;100.00
14818;BME280;7500;57.698;11.986;2022-09-12T00:26:17;101856.41;;;15.65;100.00
14818;BME280;7500;57.698;11.986;2022-09-12T00:28:45;101853.31;;;15.72;100.00
14818;BME280;7500;57.698;11.986;2022-09-12T00:31:13;101853.78;;;15.80;100.00
14818;BME280;7500;57.698;11.986;2022-09-12T00:33:41;101859.38;;;15.76;100.00
14818;BME280;7500;57.698;11.986;2022-09-12T00:36:11;101850.59;;;15.74;100.00
14818;BME280;7500;57.698;11.986;2022-09-12T00:38:39;101848.00;;;15.72;100.00
14818;BME280;7500;57.698;11.986;2022-09-12T00:41:08;101849.72;;;15.73;100.00
14818;BME280;7500;57.698;11.986;2022-09-12T00:43:38;101842.22;;;15.64;100.00
14818;BME280;7500;57.698;11.986;2022-09-12T00:46:11;101837.94;;;15.62;100.00
14818;BME280;7500;57.698;11.986;2022-09-12T00:48:42;101844.31;;;15.59;100.00
14818;BME280;7500;57.698;11.986;2022-09-12T00:51:11;101839.00;;;15.59;100.00
14818;BME280;7500;57.698;11.986;2022-09-12T00:53:40;101844.47;;;15.56;100.00
14818;BME280;7500;57.698;11.986;2022-09-12T00:56:09;101838.28;;;15.56;100.00
14818;BME280;7500;57.698;11.986;2022-09-12T00:58:41;101830.28;;;15.56;100.00
14818;BME280;7500;57.698;11.986;2022-09-12T01:01:10;101834.78;;;15.55;100.00
14818;BME280;7500;57.698;11.986;2022-09-12T01:03:37;101846.38;;;15.54;100.00
14818;BME280;7500;57.698;11.986;2022-09-12T01:06:07;101837.50;;;15.54;100.00
14818;BME280;7500;57.698;11.986;2022-09-12T01:08:39;101831.66;;;15.47;100.00
14818;BME280;7500;57.698;11.986;2022-09-12T01:11:10;101836.38;;;15.42;100.00
14818;BME280;7500;57.698;11.986;2022-09-12T01:13:38;101839.03;;;15.42;100.00
14818;BME280;7500;57.698;11.986;2022-09-12T01:16:06;101831.75;;;15.46;100.00
14818;BME280;7500;57.698;11.986;2022-09-12T01:18:43;101848.66;;;15.45;100.00
14818;BME280;7500;57.698;11.986;2022-09-12T01:21:18;101832.69;;;15.45;100.00
14818;BME280;7500;57.698;11.986;2022-09-12T01:24:29;101776.88;;;15.11;100.00
14818;BME280;7500;57.698;11.986;2022-09-12T01:27:31;101826.06;;;15.52;100.00
14818;BME280;7500;57.698;11.986;2022-09-12T01:30:20;101829.84;;;15.48;100.00
14818;BME280;7500;57.698;11.986;2022-09-12T01:32:55;101821.50;;;15.38;100.00
14818;BME280;7500;57.698;11.986;2022-09-12T01:35:31;101837.88;;;15.31;100.00
14818;BME280;7500;57.698;11.986;2022-09-12T01:38:07;101828.31;;;15.44;100.00
14818;BME280;7500;57.698;11.986;2022-09-12T01:40:42;101832.09;;;15.40;100.00
14818;BME280;7500;57.698;11.986;2022-09-12T01:43:18;101794.72;;;15.09;100.00
14818;BME280;7500;57.698;11.986;2022-09-12T01:45:57;101834.28;;;15.32;100.00
14818;BME280;7500;57.698;11.986;2022-09-12T01:48:29;101823.53;;;15.33;100.00
14818;BME280;7500;57.698;11.986;2022-09-12T01:51:05;101823.38;;;15.36;100.00
14818;BME280;7500;57.698;11.986;2022-09-12T01:53:35;101821.50;;;15.38;100.00
14818;BME280;7500;57.698;11.986;2022-09-12T01:56:07;101824.09;;;15.40;100.00
14818;BME280;7500;57.698;11.986;2022-09-12T01:58:40;101823.06;;;15.42;100.00
14818;BME280;7500;57.698;11.986;2022-09-12T02:01:14;101819.28;;;15.46;100.00
14818;BME280;7500;57.698;11.986;2022-09-12T02:03:45;101817.41;;;15.48;100.00
14818;BME280;7500;57.698;11.986;2022-09-12T02:06:18;101818.19;;;15.50;100.00
14818;BME280;7500;57.698;11.986;2022-09-12T02:08:49;101803.31;;;15.46;100.00
14818;BME280;7500;57.698;11.986;2022-09-12T02:11:17;101817.69;;;15.59;100.00
14818;BME280;7500;57.698;11.986;2022-09-12T02:13:48;101820.19;;;15.62;100.00
14818;BME280;7500;57.698;11.986;2022-09-12T02:16:22;101809.78;;;15.58;100.00
14818;BME280;7500;57.698;11.986;2022-09-12T02:18:54;101815.19;;;15.56;100.00
14818;BME280;7500;57.698;11.986;2022-09-12T02:21:23;101815.72;;;15.63;100.00
14818;BME280;7500;57.698;11.986;2022-09-12T02:23:54;101813.81;;;15.65;100.00
14818;BME280;7500;57.698;11.986;2022-09-12T02:26:24;101811.66;;;15.71;100.00
14818;BME280;7500;57.698;11.986;2022-09-12T02:28:55;101819.44;;;15.76;100.00
14818;BME280;7500;57.698;11.986;2022-09-12T02:31:26;101814.34;;;15.71;100.00
14818;BME280;7500;57.698;11.986;2022-09-12T02:34:03;101817.09;;;15.54;100.00
14818;BME280;7500;57.698;11.986;2022-09-12T02:36:40;101820.34;;;15.59;100.00
14818;BME280;7500;57.698;11.986;2022-09-12T02:39:11;101819.03;;;15.66;100.00
14818;BME280;7500;57.698;11.986;2022-09-12T02:41:38;101817.88;;;15.72;100.00
14818;BME280;7500;57.698;11.986;2022-09-12T02:44:11;101816.16;;;15.71;100.00
14818;BME280;7500;57.698;11.986;2022-09-12T02:46:41;101817.09;;;15.70;100.00
14818;BME280;7500;57.698;11.986;2022-09-12T02:49:09;101808.41;;;15.66;100.00
14818;BME280;7500;57.698;11.986;2022-09-12T02:51:37;101811.25;;;15.63;100.00
14818;BME280;7500;57.698;11.986;2022-09-12T02:54:05;101808.50;;;15.65;100.00
14818;BME280;7500;57.698;11.986;2022-09-12T02:56:32;101807.63;;;15.64;100.00
14818;BME280;7500;57.698;11.986;2022-09-12T02:59:01;101809.00;;;15.71;100.00
14818;BME280;7500;57.698;11.986;2022-09-12T03:01:43;101804.63;;;15.70;100.00
14818;BME280;7500;57.698;11.986;2022-09-12T03:04:34;101804.56;;;15.72;100.00
14818;BME280;7500;57.698;11.986;2022-09-12T03:07:12;101798.13;;;15.76;100.00
14818;BME280;7500;57.698;11.986;2022-09-12T03:09:45;101795.34;;;15.77;100.00
14818;BME280;7500;57.698;11.986;2022-09-12T03:12:22;101723.81;;;15.40;100.00
14818;BME280;7500;57.698;11.986;2022-09-12T03:15:08;101791.69;;;15.80;100.00
14818;BME280;7500;57.698;11.986;2022-09-12T03:17:56;101766.75;;;15.65;100.00
14818;BME280;7500;57.698;11.986;2022-09-12T03:20:36;101799.56;;;15.81;100.00
14818;BME280;7500;57.698;11.986;2022-09-12T03:23:13;101794.06;;;15.84;100.00
14818;BME280;7500;57.698;11.986;2022-09-12T03:25:48;101787.03;;;15.83;100.00
14818;BME280;7500;57.698;11.986;2022-09-12T03:28:16;101784.81;;;15.91;100.00
14818;BME280;7500;57.698;11.986;2022-09-12T03:30:47;101790.97;;;15.91;100.00
14818;BME280;7500;57.698;11.986;2022-09-12T03:33:18;101784.81;;;15.91;100.00
14818;BME280;7500;57.698;11.986;2022-09-12T03:35:46;101784.69;;;15.92;100.00
14818;BME280;7500;57.698;11.986;2022-09-12T03:38:13;101782.91;;;15.93;100.00
14818;BME280;7500;57.698;11.986;2022-09-12T03:40:40;101774.16;;;15.91;100.00
14818;BME280;7500;57.698;11.986;2022-09-12T03:43:07;101778.34;;;15.95;100.00
14818;BME280;7500;57.698;11.986;2022-09-12T03:45:35;101781.69;;;15.98;100.00
14818;BME280;7500;57.698;11.986;2022-09-12T03:48:03;101780.47;;;16.04;100.00
14818;BME280;7500;57.698;11.986;2022-09-12T03:50:31;101711.97;;;15.61;100.00
14818;BME280;7500;57.698;11.986;2022-09-12T03:52:58;101786.25;;;15.96;100.00
14818;BME280;7500;57.698;11.986;2022-09-12T03:55:25;101779.13;;;15.97;100.00
14818;BME280;7500;57.698;11.986;2022-09-12T03:57:52;101773.81;;;15.97;100.00
14818;BME280;7500;57.698;11.986;2022-09-12T04:00:20;101774.66;;;15.97;100.00
14818;BME280;7500;57.698;11.986;2022-09-12T04:02:47;101783.09;;;15.90;100.00
14818;BME280;7500;57.698;11.986;2022-09-12T04:05:13;101777.41;;;15.96;100.00
14818;BME280;7500;57.698;11.986;2022-09-12T04:07:42;101773.44;;;15.87;100.00
14818;BME280;7500;57.698;11.986;2022-09-12T04:10:09;101777.59;;;15.93;100.00
14818;BME280;7500;57.698;11.986;2022-09-12T04:12:35;101773.19;;;15.92;100.00
14818;BME280;7500;57.698;11.986;2022-09-12T04:15:04;101768.66;;;15.94;100.00
14818;BME280;7500;57.698;11.986;2022-09-12T04:17:32;101779.13;;;15.97;100.00
14818;BME280;7500;57.698;11.986;2022-09-12T04:19:59;101776.47;;;15.97;100.00
14818;BME280;7500;57.698;11.986;2022-09-12T04:22:27;101706.66;;;15.61;100.00
14818;BME280;7500;57.698;11.986;2022-09-12T04:24:55;101779.88;;;15.99;100.00
14818;BME280;7500;57.698;11.986;2022-09-12T04:27:22;101778.09;;;15.99;100.00
14818;BME280;7500;57.698;11.986;2022-09-12T04:29:49;101777.47;;;15.94;100.00
14818;BME280;7500;57.698;11.986;2022-09-12T04:32:16;101775.31;;;15.85;100.00
14818;BME280;7500;57.698;11.986;2022-09-12T04:34:44;101769.16;;;15.85;100.00
14818;BME280;7500;57.698;11.986;2022-09-12T04:37:11;101770.72;;;15.89;100.00
14818;BME280;7500;57.698;11.986;2022-09-12T04:39:38;101775.50;;;15.82;100.00
14818;BME280;7500;57.698;11.986;2022-09-12T04:42:07;101766.56;;;15.83;100.00
14818;BME280;7500;57.698;11.986;2022-09-12T04:44:33;101766.66;;;15.82;100.00
14818;BME280;7500;57.698;11.986;2022-09-12T04:47:00;101770.00;;;15.85;100.00
14818;BME280;7500;57.698;11.986;2022-09-12T04:49:27;101764.78;;;15.84;100.00
14818;BME280;7500;57.698;11.986;2022-09-12T04:51:54;101763.84;;;15.85;100.00
14818;BME280;7500;57.698;11.986;2022-09-12T04:54:21;101770.00;;;15.85;100.00
14818;BME280;7500;57.698;11.986;2022-09-12T04:56:49;101765.44;;;15.87;100.00
14818;BME280;7500;57.698;11.986;2022-09-12T04:59:19;101773.28;;;15.90;100.00
14818;BME280;7500;57.698;11.986;2022-09-12T05:01:47;101753.25;;;15.83;100.00
14818;BME280;7500;57.698;11.986;2022-09-12T05:04:14;101758.22;;;15.89;100.00
14818;BME280;7500;57.698;11.986;2022-09-12T05:06:42;101715.16;;;15.68;100.00
14818;BME280;7500;57.698;11.986;2022-09-12T05:09:12;101756.44;;;15.90;100.00
14818;BME280;7500;57.698;11.986;2022-09-12T05:11:41;101753.00;;;15.88;100.00
14818;BME280;7500;57.698;11.986;2022-09-12T05:14:09;101763.22;;;15.95;100.00
14818;BME280;7500;57.698;11.986;2022-09-12T05:16:37;101758.00;;;15.94;100.00
14818;BME280;7500;57.698;11.986;2022-09-12T05:19:05;101750.94;;;15.93;100.00
14818;BME280;7500;57.698;11.986;2022-09-12T05:21:32;101759.31;;;16.01;100.00
14818;BME280;7500;57.698;11.986;2022-09-12T05:23:58;101763.66;;;16.03;100.00
14818;BME280;7500;57.698;11.986;2022-09-12T05:26:26;101762.78;;;16.03;100.00
14818;BME280;7500;57.698;11.986;2022-09-12T05:28:53;101767.91;;;16.06;100.00
14818;BME280;7500;57.698;11.986;2022-09-12T05:31:22;101762.25;;;16.12;100.00
14818;BME280;7500;57.698;11.986;2022-09-12T05:33:52;101761.41;;;16.11;100.00
14818;BME280;7500;57.698;11.986;2022-09-12T05:36:21;101749.28;;;16.06;100.00
14818;BME280;7500;57.698;11.986;2022-09-12T05:38:48;101762.06;;;16.15;100.00
14818;BME280;7500;57.698;11.986;2022-09-12T05:41:17;101764.56;;;16.18;100.00
14818;BME280;7500;57.698;11.986;2022-09-12T05:43:45;101762.66;;;16.20;100.00
14818;BME280;7500;57.698;11.986;2022-09-12T05:46:13;101757.22;;;16.21;100.00
14818;BME280;7500;57.698;11.986;2022-09-12T05:48:42;101729.97;;;16.02;100.00
14818;BME280;7500;57.698;11.986;2022-09-12T05:51:13;101760.00;;;16.20;100.00
14818;BME280;7500;57.698;11.986;2022-09-12T05:53:44;101760.84;;;16.20;100.00
14818;BME280;7500;57.698;11.986;2022-09-12T05:56:13;101760.34;;;16.14;100.00
14818;BME280;7500;57.698;11.986;2022-09-12T05:58:42;101769.00;;;16.17;100.00
14818;BME280;7500;57.698;11.986;2022-09-12T06:01:12;101779.78;;;16.16;100.00
14818;BME280;7500;57.698;11.986;2022-09-12T06:03:40;101777.88;;;16.18;100.00
14818;BME280;7500;57.698;11.986;2022-09-12T06:06:10;101777.59;;;16.22;100.00
14818;BME280;7500;57.698;11.986;2022-09-12T06:08:40;101778.38;;;16.24;100.00
14818;BME280;7500;57.698;11.986;2022-09-12T06:11:07;101774.00;;;16.23;100.00
14818;BME280;7500;57.698;11.986;2022-09-12T06:13:37;101781.16;;;16.23;100.00
14818;BME280;7500;57.698;11.986;2022-09-12T06:16:06;101758.63;;;16.13;100.00
14818;BME280;7500;57.698;11.986;2022-09-12T06:18:34;101772.88;;;16.27;100.00
14818;BME280;7500;57.698;11.986;2022-09-12T06:21:02;101775.47;;;16.29;100.00
14818;BME280;7500;57.698;11.986;2022-09-12T06:23:43;101765.50;;;16.32;100.00
14818;BME280;7500;57.698;11.986;2022-09-12T06:26:12;101777.69;;;16.36;100.00
14818;BME280;7500;57.698;11.986;2022-09-12T06:28:42;101781.97;;;16.39;100.00
14818;BME280;7500;57.698;11.986;2022-09-12T06:31:10;101779.25;;;16.40;100.00
14818;BME280;7500;57.698;11.986;2022-09-12T06:33:39;101778.19;;;16.43;100.00
14818;BME280;7500;57.698;11.986;2022-09-12T06:36:08;101763.50;;;16.36;100.00
14818;BME280;7500;57.698;11.986;2022-09-12T06:38:35;101770.97;;;16.45;100.00
14818;BME280;7500;57.698;11.986;2022-09-12T06:41:05;101774.41;;;16.47;100.00
14818;BME280;7500;57.698;11.986;2022-09-12T06:43:32;101778.69;;;16.49;100.00
14818;BME280;7500;57.698;11.986;2022-09-12T06:45:59;101758.16;;;16.36;100.00
14818;BME280;7500;57.698;11.986;2022-09-12T06:48:40;101754.97;;;16.45;100.00
14818;BME280;7500;57.698;11.986;2022-09-12T06:51:09;101775.75;;;16.54;100.00
14818;BME280;7500;57.698;11.986;2022-09-12T06:53:37;101771.19;;;16.56;100.00
14818;BME280;7500;57.698;11.986;2022-09-12T06:56:08;101763.00;;;16.59;100.00
14818;BME280;7500;57.698;11.986;2022-09-12T06:58:35;101771.59;;;16.64;100.00
14818;BME280;7500;57.698;11.986;2022-09-12T07:01:04;101767.78;;;16.68;100.00
14818;BME280;7500;57.698;11.986;2022-09-12T07:03:32;101769.31;;;16.72;100.00
14818;BME280;7500;57.698;11.986;2022-09-12T07:06:02;101765.69;;;16.73;100.00
14818;BME280;7500;57.698;11.986;2022-09-12T07:08:29;101761.81;;;16.78;100.00
14818;BME280;7500;57.698;11.986;2022-09-12T07:10:56;101770.28;;;16.85;100.00
14818;BME280;7500;57.698;11.986;2022-09-12T07:13:26;101763.06;;;16.87;100.00
14818;BME280;7500;57.698;11.986;2022-09-12T07:15:53;101766.31;;;16.92;100.00
14818;BME280;7500;57.698;11.986;2022-09-12T07:18:20;101763.44;;;16.95;100.00
14818;BME280;7500;57.698;11.986;2022-09-12T07:20:48;101765.72;;;17.00;100.00
14818;BME280;7500;57.698;11.986;2022-09-12T07:23:14;101764.69;;;17.03;100.00
14818;BME280;7500;57.698;11.986;2022-09-12T07:25:41;101757.16;;;17.09;100.00
14818;BME280;7500;57.698;11.986;2022-09-12T07:28:08;101765.91;;;17.11;100.00
14818;BME280;7500;57.698;11.986;2022-09-12T07:30:37;101755.06;;;17.14;100.00
14818;BME280;7500;57.698;11.986;2022-09-12T07:33:04;101752.19;;;17.17;100.00
14818;BME280;7500;57.698;11.986;2022-09-12T07:35:33;101765.16;;;17.23;100.00
14818;BME280;7500;57.698;11.986;2022-09-12T07:38:01;101761.72;;;17.21;100.00
14818;BME280;7500;57.698;11.986;2022-09-12T07:40:28;101754.69;;;17.20;100.00
14818;BME280;7500;57.698;11.986;2022-09-12T07:42:55;101754.50;;;17.23;100.00
14818;BME280;7500;57.698;11.986;2022-09-12T07:45:22;101764.03;;;17.27;100.00
14818;BME280;7500;57.698;11.986;2022-09-12T07:47:53;101754.91;;;17.31;100.00
14818;BME280;7500;57.698;11.986;2022-09-12T07:50:20;101757.63;;;17.30;100.00
14818;BME280;7500;57.698;11.986;2022-09-12T07:52:47;101755.84;;;17.30;100.00
14818;BME280;7500;57.698;11.986;2022-09-12T07:55:15;101756.78;;;17.29;100.00
14818;BME280;7500;57.698;11.986;2022-09-12T07:57:42;101728.47;;;17.13;100.00
14818;BME280;7500;57.698;11.986;2022-09-12T08:00:09;101756.03;;;17.27;100.00
14818;BME280;7500;57.698;11.986;2022-09-12T08:02:36;101755.16;;;17.27;100.00
14818;BME280;7500;57.698;11.986;2022-09-12T08:05:05;101754.91;;;17.31;100.00
14818;BME280;7500;57.698;11.986;2022-09-12T08:07:32;101754.59;;;17.36;100.00
14818;BME280;7500;57.698;11.986;2022-09-12T08:09:59;101751.94;;;17.36;100.00
14818;BME280;7500;57.698;11.986;2022-09-12T08:12:27;101750.69;;;17.41;100.00
14818;BME280;7500;57.698;11.986;2022-09-12T08:14:54;101740.94;;;17.40;100.00
14818;BME280;7500;57.698;11.986;2022-09-12T08:17:20;101752.97;;;17.47;100.00
14818;BME280;7500;57.698;11.986;2022-09-12T08:19:47;101744.75;;;17.50;100.00
14818;BME280;7500;57.698;11.986;2022-09-12T08:22:15;101756.78;;;17.57;100.00
14818;BME280;7500;57.698;11.986;2022-09-12T08:24:46;101743.88;;;17.64;100.00
14818;BME280;7500;57.698;11.986;2022-09-12T08:27:13;101741.66;;;17.70;100.00
14818;BME280;7500;57.698;11.986;2022-09-12T08:29:40;101753.78;;;17.76;100.00
14818;BME280;7500;57.698;11.986;2022-09-12T08:32:07;101739.53;;;17.75;100.00
14818;BME280;7500;57.698;11.986;2022-09-12T08:34:34;101747.16;;;17.81;100.00
14818;BME280;7500;57.698;11.986;2022-09-12T08:37:01;101738.75;;;17.87;100.00
14818;BME280;7500;57.698;11.986;2022-09-12T08:39:29;101737.59;;;17.91;100.00
14818;BME280;7500;57.698;11.986;2022-09-12T08:42:00;101733.97;;;17.92;100.00
14818;BME280;7500;57.698;11.986;2022-09-12T08:44:45;101734.06;;;17.91;100.00
14818;BME280;7500;57.698;11.986;2022-09-12T08:47:23;101720.81;;;17.89;100.00
14818;BME280;7500;57.698;11.986;2022-09-12T08:49:59;101732.28;;;18.04;100.00
14818;BME280;7500;57.698;11.986;2022-09-12T08:52:32;101740.56;;;18.13;100.00
14818;BME280;7500;57.698;11.986;2022-09-12T08:55:05;101739.19;;;18.20;100.00
14818;BME280;7500;57.698;11.986;2022-09-12T08:57:32;101732.50;;;18.27;100.00
14818;BME280;7500;57.698;11.986;2022-09-12T09:00:02;101729.84;;;18.27;100.00
14818;BME280;7500;57.698;11.986;2022-09-12T09:02:58;101734.03;;;18.31;100.00
14818;BME280;7500;57.698;11.986;2022-09-12T09:05:41;101729.94;;;18.38;100.00
14818;BME280;7500;57.698;11.986;2022-09-12T09:08:25;101733.91;;;18.45;100.00
14818;BME280;7500;57.698;11.986;2022-09-12T09:11:03;101721.22;;;18.48;100.00
14818;BME280;7500;57.698;11.986;2022-09-12T09:13:46;101715.66;;;18.51;100.00
14818;BME280;7500;57.698;11.986;2022-09-12T09:16:37;101711.69;;;18.57;100.00
14818;BME280;7500;57.698;11.986;2022-09-12T09:19:10;101714.47;;;18.55;100.00
14818;BME280;7500;57.698;11.986;2022-09-12T09:21:44;101714.78;;;18.63;100.00
14818;BME280;7500;57.698;11.986;2022-09-12T09:24:16;101709.78;;;18.71;100.00
14818;BME280;7500;57.698;11.986;2022-09-12T09:26:50;101714.03;;;18.74;100.00
14818;BME280;7500;57.698;11.986;2022-09-12T09:29:19;101705.06;;;18.75;100.00
14818;BME280;7500;57.698;11.986;2022-09-12T09:31:51;101707.31;;;18.81;100.00
14818;BME280;7500;57.698;11.986;2022-09-12T09:34:20;101705.38;;;18.83;100.00
14818;BME280;7500;57.698;11.986;2022-09-12T09:36:51;101702.50;;;18.86;100.00
14818;BME280;7500;57.698;11.986;2022-09-12T09:39:35;101695.97;;;18.90;100.00
14818;BME280;7500;57.698;11.986;2022-09-12T09:42:18;101696.50;;;18.95;100.00
14818;BME280;7500;57.698;11.986;2022-09-12T09:44:51;101694.44;;;18.98;100.00
14818;BME280;7500;57.698;11.986;2022-09-12T09:47:19;101699.50;;;19.03;100.00
14818;BME280;7500;57.698;11.986;2022-09-12T09:49:46;101687.38;;;19.10;100.00
14818;BME280;7500;57.698;11.986;2022-09-12T09:52:15;101685.66;;;19.09;100.00
14818;BME280;7500;57.698;11.986;2022-09-12T09:54:45;101689.81;;;19.13;100.00
14818;BME280;7500;57.698;11.986;2022-09-12T09:57:43;101685.44;;;19.12;100.00
14818;BME280;7500;57.698;11.986;2022-09-12T10:00:32;101689.78;;;19.14;100.00
14818;BME280;7500;57.698;11.986;2022-09-12T10:03:23;101696.63;;;19.18;100.00
14818;BME280;7500;57.698;11.986;2022-09-12T10:05:52;101689.72;;;19.27;100.00
14818;BME280;7500;57.698;11.986;2022-09-12T10:08:22;101698.00;;;19.24;100.00
14818;BME280;7500;57.698;11.986;2022-09-12T10:10:54;101679.69;;;19.18;100.00
14818;BME280;7500;57.698;11.986;2022-09-12T10:13:29;101690.47;;;19.29;100.00
14818;BME280;7500;57.698;11.986;2022-09-12T10:15:59;101681.47;;;19.30;100.00
14818;BME280;7500;57.698;11.986;2022-09-12T10:18:39;101684.16;;;19.30;100.00
14818;BME280;7500;57.698;11.986;2022-09-12T10:21:15;101680.09;;;19.24;100.00
14818;BME280;7500;57.698;11.986;2022-09-12T10:23:44;101686.09;;;19.28;100.00
14818;BME280;7500;57.698;11.986;2022-09-12T10:26:14;101679.13;;;19.25;100.00
14818;BME280;7500;57.698;11.986;2022-09-12T10:28:49;101687.06;;;19.27;100.00
14818;BME280;7500;57.698;11.986;2022-09-12T10:31:24;101694.88;;;19.30;100.00
14818;BME280;7500;57.698;11.986;2022-09-12T10:33:54;101684.69;;;19.35;100.00
14818;BME280;7500;57.698;11.986;2022-09-12T10:36:22;101669.97;;;19.40;100.00
14818;BME280;7500;57.698;11.986;2022-09-12T10:38:52;101674.25;;;19.42;100.00
14818;BME280;7500;57.698;11.986;2022-09-12T10:41:19;101670.06;;;19.51;100.00
14818;BME280;7500;57.698;11.986;2022-09-12T10:43:49;101676.03;;;19.54;100.00
14818;BME280;7500;57.698;11.986;2022-09-12T10:46:31;101680.94;;;19.60;100.00
14818;BME280;7500;57.698;11.986;2022-09-12T10:49:19;101671.19;;;19.59;100.00
14818;BME280;7500;57.698;11.986;2022-09-12T10:51:47;101672.25;;;19.69;100.00
14818;BME280;7500;57.698;11.986;2022-09-12T10:54:16;101663.31;;;19.69;100.00
14818;BME280;7500;57.698;11.986;2022-09-12T10:57:06;101669.31;;;19.72;100.00
14818;BME280;7500;57.698;11.986;2022-09-12T10:59:50;101667.03;;;19.79;100.00
14818;BME280;7500;57.698;11.986;2022-09-12T11:02:27;101664.00;;;19.83;100.00
14818;BME280;7500;57.698;11.986;2022-09-12T11:05:01;101662.06;;;19.85;100.00
14818;BME280;7500;57.698;11.986;2022-09-12T11:07:40;101627.53;;;19.70;100.00
14818;BME280;7500;57.698;11.986;2022-09-12T11:10:28;101661.72;;;19.90;100.00
14818;BME280;7500;57.698;11.986;2022-09-12T11:13:05;101665.63;;;19.86;100.00
14818;BME280;7500;57.698;11.986;2022-09-12T11:15:49;101667.06;;;19.90;100.00
14818;BME280;7500;57.698;11.986;2022-09-12T11:18:32;101668.31;;;19.97;100.00
14818;BME280;7500;57.698;11.986;2022-09-12T11:21:14;101667.47;;;19.96;100.00
14818;BME280;7500;57.698;11.986;2022-09-12T11:24:15;101667.16;;;20.01;100.00
14818;BME280;7500;57.698;11.986;2022-09-12T11:26:56;101667.81;;;20.04;100.00
14818;BME280;7500;57.698;11.986;2022-09-12T11:29:35;101673.16;;;20.04;100.00
14818;BME280;7500;57.698;11.986;2022-09-12T11:32:20;101667.16;;;20.01;100.00
14818;BME280;7500;57.698;11.986;2022-09-12T11:35:01;101661.94;;;19.99;100.00
14818;BME280;7500;57.698;11.986;2022-09-12T11:37:43;101661.22;;;20.08;100.00
14818;BME280;7500;57.698;11.986;2022-09-12T11:40:24;101668.31;;;20.20;100.00
14818;BME280;7500;57.698;11.986;2022-09-12T11:42:59;101666.78;;;20.40;100.00
14818;BME280;7500;57.698;11.986;2022-09-12T11:45:29;101653.00;;;20.89;100.00
14818;BME280;7500;57.698;11.986;2022-09-12T11:48:05;101653.25;;;20.86;100.00
14818;BME280;7500;57.698;11.986;2022-09-12T11:50:33;101656.66;;;20.88;100.00
14818;BME280;7500;57.698;11.986;2022-09-12T11:53:04;101654.31;;;20.84;100.00
14818;BME280;7500;57.698;11.986;2022-09-12T11:55:46;101652.72;;;21.14;100.00
14818;BME280;7500;57.698;11.986;2022-09-12T11:58:17;101654.53;;;21.14;100.00
14818;BME280;7500;57.698;11.986;2022-09-12T12:00:51;101652.09;;;21.11;100.00
14818;BME280;7500;57.698;11.986;2022-09-12T12:03:26;101648.44;;;21.12;100.00
14818;BME280;7500;57.698;11.986;2022-09-12T12:06:00;101647.25;;;21.05;100.00
14818;BME280;7500;57.698;11.986;2022-09-12T12:08:31;101655.53;;;20.91;100.00
14818;BME280;7500;57.698;11.986;2022-09-12T12:11:04;101650.56;;;20.86;100.00
14818;BME280;7500;57.698;11.986;2022-09-12T12:13:32;101641.47;;;20.76;100.00
14818;BME280;7500;57.698;11.986;2022-09-12T12:16:02;101644.31;;;20.86;100.00
14818;BME280;7500;57.698;11.986;2022-09-12T12:18:35;101648.22;;;20.93;100.00
14818;BME280;7500;57.698;11.986;2022-09-12T12:21:29;101637.34;;;21.05;100.00
14818;BME280;7500;57.698;11.986;2022-09-12T12:24:10;101637.59;;;21.02;100.00
14818;BME280;7500;57.698;11.986;2022-09-12T12:26:44;101633.69;;;20.95;100.00
14818;BME280;7500;57.698;11.986;2022-09-12T12:29:35;101641.97;;;20.92;100.00
14818;BME280;7500;57.698;11.986;2022-09-12T12:32:25;101640.28;;;20.91;100.00
14818;BME280;7500;57.698;11.986;2022-09-12T12:38:27;101589.28;;;20.80;100.00
14818;BME280;7500;57.698;11.986;2022-09-12T12:47:10;101625.75;;;20.83;100.00
14818;BME280;7500;57.698;11.986;2022-09-12T12:49:48;101623.06;;;20.72;100.00
14818;BME280;7500;57.698;11.986;2022-09-12T12:52:18;101606.69;;;20.75;100.00
14818;BME280;7500;57.698;11.986;2022-09-12T12:54:52;101612.94;;;20.75;100.00
14818;BME280;7500;57.698;11.986;2022-09-12T12:57:31;101610.84;;;20.79;100.00
14818;BME280;7500;57.698;11.986;2022-09-12T13:00:04;101599.50;;;20.64;100.00
14818;BME280;7500;57.698;11.986;2022-09-12T13:02:37;101607.44;;;20.66;100.00
14818;BME280;7500;57.698;11.986;2022-09-12T13:05:16;101593.53;;;20.61;100.00
14818;BME280;7500;57.698;11.986;2022-09-12T13:07:52;101588.16;;;20.61;100.00
14818;BME280;7500;57.698;11.986;2022-09-12T13:10:22;101591.34;;;20.66;100.00
14818;BME280;7500;57.698;11.986;2022-09-12T13:12:52;101576.22;;;20.65;100.00
14818;BME280;7500;57.698;11.986;2022-09-12T13:15:45;101570.59;;;20.68;100.00